sensor_id;sensor_type;location;lat;lon;timestamp;pressure;altitude;pressure_sealevel;temperature;humidity
56928;BME280;60850;52.502;13.426;2024-03-08T00:02:17;102003.78;;;2.46;100.00
56928;BME280;60850;52.502;13.426;2024-03-08T00:04:45;102002.81;;;2.42;100.00
56928;BME280;60850;52.502;13.426;2024-03-08T00:07:13;102007.09;;;2.39;100.00
56928;BME280;60850;52.502;13.426;2024-03-08T00:09:40;101994.44;;;2.57;100.00
56928;BME280;60850;52.502;13.426;2024-03-08T00:12:07;102000.13;;;2.74;100.00
56928;BME280;60850;52.502;13.426;2024-03-08T00:14:35;102000.56;;;2.56;100.00
56928;BME280;60850;52.502;13.426;2024-03-08T00:17:03;101996.94;;;2.19;100.00
56928;BME280;60850;52.502;13.426;2024-03-08T00:19:34;101997.31;;;2.33;100.00
56928;BME280;60850;52.502;13.426;2024-03-08T00:22:01;102005.25;;;2.35;100.00
56928;BME280;60850;52.502;13.426;2024-03-08T00:24:28;101997.72;;;2.48;100.00
56928;BME280;60850;52.502;13.426;2024-03-08T00:26:56;101999.69;;;2.57;100.00
56928;BME280;60850;52.502;13.426;2024-03-08T00:29:24;101994.78;;;2.38;100.00
56928;BME280;60850;52.502;13.426;2024-03-08T00:31:51;101990.09;;;2.26;100.00
56928;BME280;60850;52.502;13.426;2024-03-08T00:34:18;101996.44;;;2.33;100.00
56928;BME280;60850;52.502;13.426;2024-03-08T00:36:47;101998.78;;;2.24;100.00
56928;BME280;60850;52.502;13.426;2024-03-08T00:39:14;101998.13;;;2.01;100.00
56928;BME280;60850;52.502;13.426;2024-03-08T00:41:41;101992.75;;;1.96;100.00
56928;BME280;60850;52.502;13.426;2024-03-08T00:44:10;101990.53;;;2.11;100.00
56928;BME280;60850;52.502;13.426;2024-03-08T00:46:37;101987.88;;;2.41;100.00
56928;BME280;60850;52.502;13.426;2024-03-08T00:49:04;101984.41;;;2.44;100.00
56928;BME280;60850;52.502;13.426;2024-03-08T00:51:32;101987.22;;;2.50;100.00
56928;BME280;60850;52.502;13.426;2024-03-08T00:54:00;101979.94;;;2.74;100.00
56928;BME280;60850;52.502;13.426;2024-03-08T00:56:28;101982.00;;;2.52;100.00
56928;BME280;60850;52.502;13.426;2024-03-08T00:58:54;101980.94;;;2.45;100.00
56928;BME280;60850;52.502;13.426;2024-03-08T01:01:22;101977.38;;;2.43;100.00
56928;BME280;60850;52.502;13.426;2024-03-08T01:03:50;101974.53;;;2.34;100.00
56928;BME280;60850;52.502;13.426;2024-03-08T01:06:18;101977.44;;;2.13;100.00
56928;BME280;60850;52.502;13.426;2024-03-08T01:08:45;101971.47;;;1.88;100.00
56928;BME280;60850;52.502;13.426;2024-03-08T01:11:14;101973.78;;;2.08;100.00
56928;BME280;60850;52.502;13.426;2024-03-08T01:13:41;101967.97;;;1.88;100.00
56928;BME280;60850;52.502;13.426;2024-03-08T01:16:08;101965.88;;;2.06;100.00
56928;BME280;60850;52.502;13.426;2024-03-08T01:18:35;101952.50;;;1.99;100.00
56928;BME280;60850;52.502;13.426;2024-03-08T01:21:03;101953.13;;;1.90;100.00
56928;BME280;60850;52.502;13.426;2024-03-08T01:23:30;101946.94;;;1.88;100.00
56928;BME280;60850;52.502;13.426;2024-03-08T01:25:57;101951.50;;;1.95;100.00
56928;BME280;60850;52.502;13.426;2024-03-08T01:28:26;101938.84;;;1.80;100.00
56928;BME280;60850;52.502;13.426;2024-03-08T01:30:53;101945.88;;;2.13;100.00
56928;BME280;60850;52.502;13.426;2024-03-08T01:33:22;101944.25;;;2.18;100.00
56928;BME280;60850;52.502;13.426;2024-03-08T01:35:51;101941.59;;;2.16;100.00
56928;BME280;60850;52.502;13.426;2024-03-08T01:38:18;101936.84;;;2.36;100.00
56928;BME280;60850;52.502;13.426;2024-03-08T01:40:47;101933.81;;;2.54;100.00
56928;BME280;60850;52.502;13.426;2024-03-08T01:43:20;101929.84;;;2.37;100.00
56928;BME280;60850;52.502;13.426;2024-03-08T01:45:49;101934.16;;;2.33;100.00
56928;BME280;60850;52.502;13.426;2024-03-08T01:48:16;101929.69;;;2.31;100.00
56928;BME280;60850;52.502;13.426;2024-03-08T01:50:45;101928.31;;;2.45;100.00
56928;BME280;60850;52.502;13.426;2024-03-08T01:53:12;101923.78;;;2.06;100.00
56928;BME280;60850;52.502;13.426;2024-03-08T01:55:42;101915.66;;;2.32;100.00
56928;BME280;60850;52.502;13.426;2024-03-08T01:58:10;101915.53;;;2.26;100.00
56928;BME280;60850;52.502;13.426;2024-03-08T02:00:38;101909.09;;;2.14;100.00
56928;BME280;60850;52.502;13.426;2024-03-08T02:03:08;101913.16;;;2.03;100.00
56928;BME280;60850;52.502;13.426;2024-03-08T02:05:36;101906.84;;;1.97;100.00
56928;BME280;60850;52.502;13.426;2024-03-08T02:08:04;101904.00;;;1.89;100.00
56928;BME280;60850;52.502;13.426;2024-03-08T02:10:34;101902.91;;;1.81;100.00
56928;BME280;60850;52.502;13.426;2024-03-08T02:13:01;101898.56;;;2.14;100.00
56928;BME280;60850;52.502;13.426;2024-03-08T02:15:50;101901.69;;;2.00;100.00
56928;BME280;60850;52.502;13.426;2024-03-08T02:18:18;101897.69;;;1.82;100.00
56928;BME280;60850;52.502;13.426;2024-03-08T02:20:47;101902.91;;;1.81;100.00
56928;BME280;60850;52.502;13.426;2024-03-08T02:23:14;101900.97;;;2.05;100.00
56928;BME280;60850;52.502;13.426;2024-03-08T02:25:41;101897.75;;;1.84;100.00
56928;BME280;60850;52.502;13.426;2024-03-08T02:28:10;101892.91;;;1.68;100.00
56928;BME280;60850;52.502;13.426;2024-03-08T02:30:37;101893.31;;;1.83;100.00
56928;BME280;60850;52.502;13.426;2024-03-08T02:33:04;101896.41;;;1.68;100.00
56928;BME280;60850;52.502;13.426;2024-03-08T02:35:31;101897.16;;;1.62;100.00
56928;BME280;60850;52.502;13.426;2024-03-08T02:38:00;101890.94;;;1.60;100.00
56928;BME280;60850;52.502;13.426;2024-03-08T02:40:27;101886.34;;;1.53;100.00
56928;BME280;60850;52.502;13.426;2024-03-08T02:42:54;101899.41;;;1.50;100.00
56928;BME280;60850;52.502;13.426;2024-03-08T02:45:21;101885.50;;;1.54;100.00
56928;BME280;60850;52.502;13.426;2024-03-08T02:47:48;101891.88;;;1.32;100.00
56928;BME280;60850;52.502;13.426;2024-03-08T02:50:16;101884.78;;;1.28;100.00
56928;BME280;60850;52.502;13.426;2024-03-08T02:52:43;101882.31;;;1.34;100.00
56928;BME280;60850;52.502;13.426;2024-03-08T02:55:13;101882.44;;;1.39;100.00
56928;BME280;60850;52.502;13.426;2024-03-08T02:57:41;101878.47;;;1.53;100.00
56928;BME280;60850;52.502;13.426;2024-03-08T03:00:10;101876.63;;;1.49;100.00
56928;BME280;60850;52.502;13.426;2024-03-08T03:02:38;101878.59;;;1.56;100.00
56928;BME280;60850;52.502;13.426;2024-03-08T03:05:06;101875.00;;;1.54;100.00
56928;BME280;60850;52.502;13.426;2024-03-08T03:07:35;101871.38;;;1.49;100.00
56928;BME280;60850;52.502;13.426;2024-03-08T03:10:03;101875.28;;;1.63;100.00
56928;BME280;60850;52.502;13.426;2024-03-08T03:12:32;101871.38;;;1.49;100.00
56928;BME280;60850;52.502;13.426;2024-03-08T03:15:00;101871.78;;;1.64;100.00
56928;BME280;60850;52.502;13.426;2024-03-08T03:17:27;101869.84;;;1.57;100.00
56928;BME280;60850;52.502;13.426;2024-03-08T03:19:54;101871.59;;;1.57;100.00
56928;BME280;60850;52.502;13.426;2024-03-08T03:22:21;101868.56;;;1.43;100.00
56928;BME280;60850;52.502;13.426;2024-03-08T03:24:49;101866.00;;;1.46;100.00
56928;BME280;60850;52.502;13.426;2024-03-08T03:27:17;101863.78;;;1.30;100.00
56928;BME280;60850;52.502;13.426;2024-03-08T03:29:47;101860.06;;;1.22;100.00
56928;BME280;60850;52.502;13.426;2024-03-08T03:32:15;101864.25;;;1.15;100.00
56928;BME280;60850;52.502;13.426;2024-03-08T03:34:42;101860.63;;;1.12;100.00
56928;BME280;60850;52.502;13.426;2024-03-08T03:37:09;101861.56;;;1.14;100.00
56928;BME280;60850;52.502;13.426;2024-03-08T03:39:38;101859.88;;;1.16;100.00
56928;BME280;60850;52.502;13.426;2024-03-08T03:42:14;101853.03;;;1.21;100.00
56928;BME280;60850;52.502;13.426;2024-03-08T03:44:43;101856.44;;;1.18;100.00
56928;BME280;60850;52.502;13.426;2024-03-08T03:47:12;101867.81;;;1.19;100.00
56928;BME280;60850;52.502;13.426;2024-03-08T03:49:40;101864.56;;;0.97;100.00
56928;BME280;60850;52.502;13.426;2024-03-08T03:52:07;101860.72;;;0.86;100.00
56928;BME280;60850;52.502;13.426;2024-03-08T03:54:34;101865.56;;;1.01;100.00
56928;BME280;60850;52.502;13.426;2024-03-08T03:57:01;101869.03;;;1.00;100.00
56928;BME280;60850;52.502;13.426;2024-03-08T03:59:28;101861.03;;;1.25;100.00
56928;BME280;60850;52.502;13.426;2024-03-08T04:01:55;101859.91;;;1.17;100.00
56928;BME280;60850;52.502;13.426;2024-03-08T04:04:24;101855.75;;;1.25;100.00
56928;BME280;60850;52.502;13.426;2024-03-08T04:06:51;101861.25;;;1.33;100.00
56928;BME280;60850;52.502;13.426;2024-03-08T04:09:18;101858.88;;;1.12;100.00
56928;BME280;60850;52.502;13.426;2024-03-08T04:11:47;101863.78;;;1.00;100.00
56928;BME280;60850;52.502;13.426;2024-03-08T04:14:15;101859.88;;;1.16;100.00
56928;BME280;60850;52.502;13.426;2024-03-08T04:16:42;101863.34;;;1.15;100.00
56928;BME280;60850;52.502;13.426;2024-03-08T04:19:09;101854.81;;;1.22;100.00
56928;BME280;60850;52.502;13.426;2024-03-08T04:21:38;101861.50;;;1.12;100.00
56928;BME280;60850;52.502;13.426;2024-03-08T04:24:05;101863.34;;;1.15;100.00
56928;BME280;60850;52.502;13.426;2024-03-08T04:26:32;101858.34;;;0.94;100.00
56928;BME280;60850;52.502;13.426;2024-03-08T04:29:00;101862.31;;;0.81;100.00
56928;BME280;60850;52.502;13.426;2024-03-08T04:31:27;101860.53;;;0.80;100.00
56928;BME280;60850;52.502;13.426;2024-03-08T04:33:54;101861.19;;;0.73;100.00
56928;BME280;60850;52.502;13.426;2024-03-08T04:36:21;101866.31;;;0.70;100.00
56928;BME280;60850;52.502;13.426;2024-03-08T04:38:50;101865.59;;;0.74;100.00
56928;BME280;60850;52.502;13.426;2024-03-08T04:41:18;101866.88;;;0.60;100.00
56928;BME280;60850;52.502;13.426;2024-03-08T04:43:46;101866.44;;;0.73;100.00
56928;BME280;60850;52.502;13.426;2024-03-08T04:46:12;101858.09;;;0.58;100.00
56928;BME280;60850;52.502;13.426;2024-03-08T04:48:40;101857.56;;;0.69;100.00
56928;BME280;60850;52.502;13.426;2024-03-08T04:51:08;101859.16;;;0.64;100.00
56928;BME280;60850;52.502;13.426;2024-03-08T04:53:36;101864.91;;;0.52;100.00
56928;BME280;60850;52.502;13.426;2024-03-08T04:56:06;101858.84;;;0.55;100.00
56928;BME280;60850;52.502;13.426;2024-03-08T04:58:33;101861.59;;;0.58;100.00
56928;BME280;60850;52.502;13.426;2024-03-08T05:01:02;101863.13;;;0.51;100.00
56928;BME280;60850;52.502;13.426;2024-03-08T05:03:29;101859.38;;;0.43;100.00
56928;BME280;60850;52.502;13.426;2024-03-08T05:05:56;101855.91;;;0.44;100.00
56928;BME280;60850;52.502;13.426;2024-03-08T05:08:23;101851.78;;;0.25;100.00
56928;BME280;60850;52.502;13.426;2024-03-08T05:10:51;101845.84;;;0.31;100.00
56928;BME280;60850;52.502;13.426;2024-03-08T05:13:20;101849.94;;;0.23;100.00
56928;BME280;60850;52.502;13.426;2024-03-08T05:15:48;101856.16;;;0.26;100.00
56928;BME280;60850;52.502;13.426;2024-03-08T05:18:16;101852.56;;;0.23;100.00
56928;BME280;60850;52.502;13.426;2024-03-08T05:20:42;101863.44;;;0.35;100.00
56928;BME280;60850;52.502;13.426;2024-03-08T05:23:10;101852.66;;;0.26;100.00
56928;BME280;60850;52.502;13.426;2024-03-08T05:25:36;101845.88;;;0.33;100.00
56928;BME280;60850;52.502;13.426;2024-03-08T05:28:04;101848.59;;;0.63;100.00
56928;BME280;60850;52.502;13.426;2024-03-08T05:30:33;101845.09;;;0.62;100.00
56928;BME280;60850;52.502;13.426;2024-03-08T05:33:01;101848.34;;;0.55;100.00
56928;BME280;60850;52.502;13.426;2024-03-08T05:35:29;101837.38;;;0.40;100.00
56928;BME280;60850;52.502;13.426;2024-03-08T05:37:56;101856.00;;;0.47;100.00
56928;BME280;60850;52.502;13.426;2024-03-08T05:40:23;101837.63;;;0.47;100.00
56928;BME280;60850;52.502;13.426;2024-03-08T05:42:50;101841.97;;;0.47;100.00
56928;BME280;60850;52.502;13.426;2024-03-08T05:45:17;101838.72;;;0.54;100.00
56928;BME280;60850;52.502;13.426;2024-03-08T05:47:46;101846.28;;;0.45;100.00
56928;BME280;60850;52.502;13.426;2024-03-08T05:50:13;101840.31;;;0.77;100.00
56928;BME280;60850;52.502;13.426;2024-03-08T05:52:41;101837.88;;;0.83;100.00
56928;BME280;60850;52.502;13.426;2024-03-08T05:55:08;101846.41;;;1.05;100.00
56928;BME280;60850;52.502;13.426;2024-03-08T05:57:36;101844.97;;;1.15;100.00
56928;BME280;60850;52.502;13.426;2024-03-08T06:00:06;101845.75;;;1.12;100.00
56928;BME280;60850;52.502;13.426;2024-03-08T06:02:33;101848.50;;;1.17;100.00
56928;BME280;60850;52.502;13.426;2024-03-08T06:05:07;101849.91;;;1.34;100.00
56928;BME280;60850;52.502;13.426;2024-03-08T06:07:34;101846.63;;;1.41;100.00
56928;BME280;60850;52.502;13.426;2024-03-08T06:10:02;101847.38;;;1.37;100.00
56928;BME280;60850;52.502;13.426;2024-03-08T06:12:30;101855.25;;;1.07;100.00
56928;BME280;60850;52.502;13.426;2024-03-08T06:14:59;101852.22;;;1.23;100.00
56928;BME280;60850;52.502;13.426;2024-03-08T06:17:26;101858.97;;;1.15;100.00
56928;BME280;60850;52.502;13.426;2024-03-08T06:19:53;101847.19;;;1.31;100.00
56928;BME280;60850;52.502;13.426;2024-03-08T06:22:22;101852.19;;;1.53;100.00
56928;BME280;60850;52.502;13.426;2024-03-08T06:24:49;101853.41;;;1.64;100.00
56928;BME280;60850;52.502;13.426;2024-03-08T06:27:17;101850.84;;;1.99;100.00
56928;BME280;60850;52.502;13.426;2024-03-08T06:29:44;101851.06;;;2.43;100.00
56928;BME280;60850;52.502;13.426;2024-03-08T06:32:11;101834.88;;;3.03;100.00
56928;BME280;60850;52.502;13.426;2024-03-08T06:34:40;101845.31;;;3.83;100.00
56928;BME280;60850;52.502;13.426;2024-03-08T06:37:07;101841.97;;;3.46;100.00
56928;BME280;60850;52.502;13.426;2024-03-08T06:39:35;101846.56;;;4.55;100.00
56928;BME280;60850;52.502;13.426;2024-03-08T06:42:03;101842.31;;;5.28;100.00
56928;BME280;60850;52.502;13.426;2024-03-08T06:44:30;101836.19;;;5.29;100.00
56928;BME280;60850;52.502;13.426;2024-03-08T06:46:58;101835.72;;;5.67;100.00
56928;BME280;60850;52.502;13.426;2024-03-08T06:49:25;101838.03;;;5.38;100.00
56928;BME280;60850;52.502;13.426;2024-03-08T06:51:53;101838.38;;;5.67;100.00
56928;BME280;60850;52.502;13.426;2024-03-08T06:54:20;101833.94;;;5.64;100.00
56928;BME280;60850;52.502;13.426;2024-03-08T06:56:48;101841.19;;;5.84;100.00
56928;BME280;60850;52.502;13.426;2024-03-08T06:59:15;101837.22;;;6.21;96.23
56928;BME280;60850;52.502;13.426;2024-03-08T07:01:43;101831.59;;;7.04;91.54
56928;BME280;60850;52.502;13.426;2024-03-08T07:04:12;101837.16;;;7.59;90.65
56928;BME280;60850;52.502;13.426;2024-03-08T07:06:39;101838.78;;;7.25;89.91
56928;BME280;60850;52.502;13.426;2024-03-08T07:09:07;101835.88;;;6.82;91.23
56928;BME280;60850;52.502;13.426;2024-03-08T07:11:34;101835.88;;;6.82;91.02
56928;BME280;60850;52.502;13.426;2024-03-08T07:14:03;101836.25;;;6.16;93.28
56928;BME280;60850;52.502;13.426;2024-03-08T07:16:32;101833.97;;;6.57;91.44
56928;BME280;60850;52.502;13.426;2024-03-08T07:18:59;101834.03;;;6.66;93.08
56928;BME280;60850;52.502;13.426;2024-03-08T07:21:26;101825.00;;;6.41;93.30
56928;BME280;60850;52.502;13.426;2024-03-08T07:23:54;101836.19;;;6.08;93.10
56928;BME280;60850;52.502;13.426;2024-03-08T07:26:39;101837.84;;;5.98;94.06
56928;BME280;60850;52.502;13.426;2024-03-08T07:29:08;101829.56;;;5.69;95.80
56928;BME280;60850;52.502;13.426;2024-03-08T07:31:35;101830.38;;;5.64;96.19
56928;BME280;60850;52.502;13.426;2024-03-08T07:34:16;101826.34;;;5.95;95.15
56928;BME280;60850;52.502;13.426;2024-03-08T07:36:43;101822.72;;;5.11;98.34
56928;BME280;60850;52.502;13.426;2024-03-08T07:39:10;101826.94;;;4.98;99.19
56928;BME280;60850;52.502;13.426;2024-03-08T07:41:39;101821.25;;;4.69;100.00
56928;BME280;60850;52.502;13.426;2024-03-08T07:44:08;101821.44;;;4.81;100.00
56928;BME280;60850;52.502;13.426;2024-03-08T07:46:35;101820.03;;;5.08;100.00
56928;BME280;60850;52.502;13.426;2024-03-08T07:49:02;101822.50;;;5.67;96.55
56928;BME280;60850;52.502;13.426;2024-03-08T07:51:30;101817.31;;;5.02;98.73
56928;BME280;60850;52.502;13.426;2024-03-08T07:53:57;101818.59;;;5.34;97.25
56928;BME280;60850;52.502;13.426;2024-03-08T07:56:24;101800.97;;;5.35;98.05
56928;BME280;60850;52.502;13.426;2024-03-08T07:58:51;101804.53;;;5.37;98.90
56928;BME280;60850;52.502;13.426;2024-03-08T08:01:20;101799.69;;;5.02;98.84
56928;BME280;60850;52.502;13.426;2024-03-08T08:03:47;101809.44;;;5.81;95.84
56928;BME280;60850;52.502;13.426;2024-03-08T08:06:15;101802.91;;;6.39;92.44
56928;BME280;60850;52.502;13.426;2024-03-08T08:08:43;101808.19;;;6.36;92.50
56928;BME280;60850;52.502;13.426;2024-03-08T08:11:10;101802.91;;;6.36;91.63
56928;BME280;60850;52.502;13.426;2024-03-08T08:13:38;101795.94;;;6.50;90.93
56928;BME280;60850;52.502;13.426;2024-03-08T08:16:05;101789.34;;;7.44;86.27
56928;BME280;60850;52.502;13.426;2024-03-08T08:18:34;101788.56;;;8.02;81.82
56928;BME280;60850;52.502;13.426;2024-03-08T08:21:02;101789.44;;;7.93;82.62
56928;BME280;60850;52.502;13.426;2024-03-08T08:23:31;101794.75;;;8.02;80.48
56928;BME280;60850;52.502;13.426;2024-03-08T08:25:59;101785.03;;;8.68;78.12
56928;BME280;60850;52.502;13.426;2024-03-08T08:28:27;101789.38;;;9.00;87.01
56928;BME280;60850;52.502;13.426;2024-03-08T08:30:54;101781.66;;;10.12;76.98
56928;BME280;60850;52.502;13.426;2024-03-08T08:33:21;101785.13;;;11.12;71.31
56928;BME280;60850;52.502;13.426;2024-03-08T08:35:49;101781.63;;;11.09;65.09
56928;BME280;60850;52.502;13.426;2024-03-08T08:38:19;101774.97;;;11.42;61.90
56928;BME280;60850;52.502;13.426;2024-03-08T08:40:47;101775.16;;;11.93;61.69
56928;BME280;60850;52.502;13.426;2024-03-08T08:43:14;101773.34;;;11.93;60.46
56928;BME280;60850;52.502;13.426;2024-03-08T08:45:41;101773.19;;;12.56;59.58
56928;BME280;60850;52.502;13.426;2024-03-08T08:48:08;101773.47;;;12.41;56.23
56928;BME280;60850;52.502;13.426;2024-03-08T08:50:36;101767.66;;;12.65;57.53
56928;BME280;60850;52.502;13.426;2024-03-08T08:53:06;101761.13;;;12.80;54.56
56928;BME280;60850;52.502;13.426;2024-03-08T08:55:33;101765.59;;;12.80;53.28
56928;BME280;60850;52.502;13.426;2024-03-08T08:58:01;101755.88;;;12.76;54.64
56928;BME280;60850;52.502;13.426;2024-03-08T09:00:29;101756.81;;;13.18;54.33
56928;BME280;60850;52.502;13.426;2024-03-08T09:02:58;101755.78;;;12.31;52.59
56928;BME280;60850;52.502;13.426;2024-03-08T09:05:25;101752.84;;;12.48;54.30
56928;BME280;60850;52.502;13.426;2024-03-08T09:07:52;101766.06;;;12.54;52.55
56928;BME280;60850;52.502;13.426;2024-03-08T09:10:21;101761.66;;;12.99;52.59
56928;BME280;60850;52.502;13.426;2024-03-08T09:12:48;101754.66;;;12.92;50.43
56928;BME280;60850;52.502;13.426;2024-03-08T09:15:16;101747.72;;;13.27;48.96
56928;BME280;60850;52.502;13.426;2024-03-08T09:17:46;101739.72;;;12.34;53.06
56928;BME280;60850;52.502;13.426;2024-03-08T09:20:14;101746.38;;;12.08;55.79
56928;BME280;60850;52.502;13.426;2024-03-08T09:22:43;101740.16;;;10.77;56.15
56928;BME280;60850;52.502;13.426;2024-03-08T09:25:10;101738.63;;;9.43;61.44
56928;BME280;60850;52.502;13.426;2024-03-08T09:27:39;101736.13;;;9.12;64.84
56928;BME280;60850;52.502;13.426;2024-03-08T09:30:07;101737.09;;;8.97;64.25
56928;BME280;60850;52.502;13.426;2024-03-08T09:32:34;101745.22;;;7.98;68.54
56928;BME280;60850;52.502;13.426;2024-03-08T09:35:03;101731.91;;;7.75;70.32
56928;BME280;60850;52.502;13.426;2024-03-08T09:37:32;101731.91;;;7.55;73.97
56928;BME280;60850;52.502;13.426;2024-03-08T09:40:00;101717.75;;;7.70;73.90
56928;BME280;60850;52.502;13.426;2024-03-08T09:42:30;101722.19;;;7.69;76.15
56928;BME280;60850;52.502;13.426;2024-03-08T09:44:59;101718.63;;;7.55;75.71
56928;BME280;60850;52.502;13.426;2024-03-08T09:47:28;101727.44;;;7.45;76.88
56928;BME280;60850;52.502;13.426;2024-03-08T09:49:59;101708.94;;;7.83;76.19
56928;BME280;60850;52.502;13.426;2024-03-08T09:52:27;101720.41;;;7.68;75.13
56928;BME280;60850;52.502;13.426;2024-03-08T09:54:56;101713.28;;;7.54;75.54
56928;BME280;60850;52.502;13.426;2024-03-08T09:57:23;101708.84;;;7.37;78.95
56928;BME280;60850;52.502;13.426;2024-03-08T09:59:52;101709.72;;;7.39;78.64
56928;BME280;60850;52.502;13.426;2024-03-08T10:02:20;101703.56;;;7.53;76.08
56928;BME280;60850;52.502;13.426;2024-03-08T10:04:47;101688.53;;;7.61;74.08
56928;BME280;60850;52.502;13.426;2024-03-08T10:07:14;101695.63;;;7.63;75.96
56928;BME280;60850;52.502;13.426;2024-03-08T10:09:41;101693.00;;;7.91;73.29
56928;BME280;60850;52.502;13.426;2024-03-08T10:12:12;101694.75;;;7.57;73.77
56928;BME280;60850;52.502;13.426;2024-03-08T10:14:40;101695.59;;;7.27;75.10
56928;BME280;60850;52.502;13.426;2024-03-08T10:17:08;101690.28;;;7.39;76.46
56928;BME280;60850;52.502;13.426;2024-03-08T10:19:37;101696.41;;;7.06;75.68
56928;BME280;60850;52.502;13.426;2024-03-08T10:22:04;101692.03;;;7.29;78.66
56928;BME280;60850;52.502;13.426;2024-03-08T10:24:33;101682.28;;;7.14;76.43
56928;BME280;60850;52.502;13.426;2024-03-08T10:27:00;101685.72;;;6.91;77.39
56928;BME280;60850;52.502;13.426;2024-03-08T10:29:31;101677.78;;;6.86;77.62
56928;BME280;60850;52.502;13.426;2024-03-08T10:31:58;101668.13;;;7.15;76.31
56928;BME280;60850;52.502;13.426;2024-03-08T10:34:26;101669.00;;;7.05;78.25
56928;BME280;60850;52.502;13.426;2024-03-08T10:37:01;101665.47;;;7.11;76.49
56928;BME280;60850;52.502;13.426;2024-03-08T10:39:34;101663.75;;;7.21;75.18
56928;BME280;60850;52.502;13.426;2024-03-08T10:42:03;101665.50;;;7.15;76.51
56928;BME280;60850;52.502;13.426;2024-03-08T10:44:46;101673.50;;;7.34;75.41
56928;BME280;60850;52.502;13.426;2024-03-08T10:47:19;101654.91;;;7.37;75.36
56928;BME280;60850;52.502;13.426;2024-03-08T10:49:54;101650.47;;;7.33;72.29
56928;BME280;60850;52.502;13.426;2024-03-08T10:52:23;101646.94;;;7.23;72.38
56928;BME280;60850;52.502;13.426;2024-03-08T10:54:52;101642.56;;;7.50;72.35
56928;BME280;60850;52.502;13.426;2024-03-08T10:57:22;101650.50;;;7.47;69.84
56928;BME280;60850;52.502;13.426;2024-03-08T10:59:50;101639.00;;;7.58;70.46
56928;BME280;60850;52.502;13.426;2024-03-08T11:02:18;101640.78;;;7.61;70.12
56928;BME280;60850;52.502;13.426;2024-03-08T11:04:47;101636.38;;;7.41;68.98
56928;BME280;60850;52.502;13.426;2024-03-08T11:07:14;101632.81;;;7.44;70.32
56928;BME280;60850;52.502;13.426;2024-03-08T11:09:47;101619.53;;;7.52;70.25
56928;BME280;60850;52.502;13.426;2024-03-08T11:12:25;101624.88;;;7.56;72.81
56928;BME280;60850;52.502;13.426;2024-03-08T11:14:55;101623.09;;;7.58;69.34
56928;BME280;60850;52.502;13.426;2024-03-08T11:17:40;101616.00;;;7.45;70.79
56928;BME280;60850;52.502;13.426;2024-03-08T11:20:11;101608.94;;;7.53;68.76
56928;BME280;60850;52.502;13.426;2024-03-08T11:22:47;101597.44;;;7.50;67.55
56928;BME280;60850;52.502;13.426;2024-03-08T11:25:34;101595.69;;;7.56;67.88
56928;BME280;60850;52.502;13.426;2024-03-08T11:28:10;101593.03;;;7.68;67.64
56928;BME280;60850;52.502;13.426;2024-03-08T11:30:43;101589.47;;;7.76;69.29
56928;BME280;60850;52.502;13.426;2024-03-08T11:33:11;101584.16;;;7.76;70.58
56928;BME280;60850;52.502;13.426;2024-03-08T11:35:39;101581.50;;;7.60;66.98
56928;BME280;60850;52.502;13.426;2024-03-08T11:38:08;101577.09;;;7.56;67.38
56928;BME280;60850;52.502;13.426;2024-03-08T11:40:36;101577.00;;;8.02;70.46
56928;BME280;60850;52.502;13.426;2024-03-08T11:43:05;101573.47;;;8.06;64.96
56928;BME280;60850;52.502;13.426;2024-03-08T11:45:34;101568.19;;;7.97;62.75
56928;BME280;60850;52.502;13.426;2024-03-08T11:48:03;101567.31;;;7.75;64.74
56928;BME280;60850;52.502;13.426;2024-03-08T11:50:31;101572.63;;;7.80;65.11
56928;BME280;60850;52.502;13.426;2024-03-08T11:53:03;101559.38;;;7.78;63.92
56928;BME280;60850;52.502;13.426;2024-03-08T11:55:31;101569.94;;;8.03;63.06
56928;BME280;60850;52.502;13.426;2024-03-08T11:58:05;101559.34;;;7.98;63.22
56928;BME280;60850;52.502;13.426;2024-03-08T12:00:34;101568.22;;;7.80;64.73
56928;BME280;60850;52.502;13.426;2024-03-08T12:03:05;101563.78;;;7.90;64.43
56928;BME280;60850;52.502;13.426;2024-03-08T12:05:33;101561.13;;;7.75;62.70
56928;BME280;60850;52.502;13.426;2024-03-08T12:08:00;101554.09;;;7.66;65.31
56928;BME280;60850;52.502;13.426;2024-03-08T12:10:28;101562.03;;;7.78;65.71
56928;BME280;60850;52.502;13.426;2024-03-08T12:12:58;101549.56;;;8.02;65.24
56928;BME280;60850;52.502;13.426;2024-03-08T12:15:28;101552.28;;;7.82;66.51
56928;BME280;60850;52.502;13.426;2024-03-08T12:17:58;101550.50;;;7.90;70.30
56928;BME280;60850;52.502;13.426;2024-03-08T12:20:27;101545.16;;;7.99;65.89
56928;BME280;60850;52.502;13.426;2024-03-08T12:22:55;101553.19;;;7.82;65.87
56928;BME280;60850;52.502;13.426;2024-03-08T12:25:26;101541.69;;;7.60;66.43
56928;BME280;60850;52.502;13.426;2024-03-08T12:27:54;101532.88;;;7.64;66.94
56928;BME280;60850;52.502;13.426;2024-03-08T12:30:24;101537.28;;;7.68;66.05
56928;BME280;60850;52.502;13.426;2024-03-08T12:32:55;101530.22;;;7.60;66.49
56928;BME280;60850;52.502;13.426;2024-03-08T12:35:24;101525.78;;;7.63;66.54
56928;BME280;60850;52.502;13.426;2024-03-08T12:37:53;101532.00;;;7.56;65.91
56928;BME280;60850;52.502;13.426;2024-03-08T12:40:25;101523.13;;;7.69;65.06
56928;BME280;60850;52.502;13.426;2024-03-08T12:42:53;101513.38;;;7.75;65.46
56928;BME280;60850;52.502;13.426;2024-03-08T12:45:20;101514.28;;;7.64;65.70
56928;BME280;60850;52.502;13.426;2024-03-08T12:47:49;101516.03;;;7.61;66.00
56928;BME280;60850;52.502;13.426;2024-03-08T12:50:18;101521.38;;;7.62;65.46